Darstellungsparameter: Aktuell verwendete Einstellungen:
Skalierung der Graphiken ... ?
xyx+y,   Skalierungsfaktor:      Skalierung: Modus: x, Faktor: 1
Darstellungszeitraum ... ?
Vom - - bis: - -   Zeitraum: 17.07.2019 - 17.07.2019
Min/Max/Avg-Anzeige ... ?
Zeige MMA aktuell
Zeige MMA Monat
Zeige MMA alles
Zeige --A aktuell
Zeige --A Monat
Zeige --A alles
Keine MMA-Anzeige
MMA:
Minimum Maximum Average (ber die Originaldaten)
MMA-Basis: 16.06.2019 - 18.07.2019
Quicknavigation für Darstellung... ?
Tage:      1T, 2T, 3T, 5T -1T -2T -3T -5T +1T +2T +3T +5T
Wochen: 1W, 2W, 3W -1W -2W -3W +1W +2W +3W
Monate: 1M, 3M, 6M -1M -3M -6M +1M +3M +6M
Jahre:    1J, 3J, 5J, 10J -1J -3J -5J -10J +1J +3J +5J +10J
Nutze für die Darstellung ... ?
Originaldaten oder Mittelwerte auf ...
Stundenbasis Tagesbasis Wochenbasis
Monatsbasis Jahresbasis      Datenbasis: Original-Daten
Darstellen als:
Statistik (Auto) Statistik J:M      Darstellung:
Zur Graphik,    zurück zur Übersicht aller Sensoren.
 
Tabellarische Datenbersicht: ?
 
Sensor: Nr:Datum:Temp:Feuchte:Taupunkt:
Aussen-T/F 1 17-07-2019 00:00:00 14.7 C 83 % 11.85 C
2 17-07-2019 00:05:00 14.6 C 83 % 11.75 C
3 17-07-2019 00:10:00 14.4 C 83 % 11.55 C
4 17-07-2019 00:15:00 14.3 C 83 % 11.45 C
5 17-07-2019 00:20:00 14.3 C 84 % 11.64 C
6 17-07-2019 00:25:00 14.1 C 84 % 11.44 C
7 17-07-2019 00:30:00 14 C 84 % 11.34 C
8 17-07-2019 00:35:00 13.9 C 85 % 11.42 C
9 17-07-2019 00:40:00 13.8 C 85 % 11.32 C
10 17-07-2019 00:45:00 13.7 C 86 % 11.4 C
11 17-07-2019 00:50:00 13.7 C 86 % 11.4 C
12 17-07-2019 00:55:00 13.6 C 86 % 11.3 C
13 17-07-2019 01:00:00 13.4 C 87 % 11.28 C
14 17-07-2019 01:05:00 13.3 C 87 % 11.18 C
15 17-07-2019 01:10:00 13.2 C 87 % 11.09 C
16 17-07-2019 01:15:00 13.2 C 88 % 11.26 C
17 17-07-2019 01:20:00 13.1 C 88 % 11.16 C
18 17-07-2019 01:25:00 13.1 C 88 % 11.16 C
19 17-07-2019 01:30:00 13.1 C 89 % 11.33 C
20 17-07-2019 01:35:00 13 C 89 % 11.23 C
21 17-07-2019 01:40:00 13 C 89 % 11.23 C
22 17-07-2019 01:45:00 12.9 C 89 % 11.13 C
23 17-07-2019 01:50:00 12.9 C 89 % 11.13 C
24 17-07-2019 01:55:00 12.8 C 89 % 11.03 C
25 17-07-2019 02:00:00 12.8 C 89 % 11.03 C
Sensor: Nr:Datum:Temp:Feuchte:Taupunkt:
Aussen-T/F 26 17-07-2019 02:05:00 12.7 C 89 % 10.94 C
27 17-07-2019 02:10:00 12.7 C 89 % 10.94 C
28 17-07-2019 02:15:00 12.6 C 89 % 10.84 C
29 17-07-2019 02:20:00 12.5 C 90 % 10.91 C
30 17-07-2019 02:25:00 12.4 C 90 % 10.81 C
31 17-07-2019 02:30:00 12.3 C 90 % 10.71 C
32 17-07-2019 02:35:00 12.3 C 90 % 10.71 C
33 17-07-2019 02:40:00 12.3 C 90 % 10.71 C
34 17-07-2019 02:45:00 12.2 C 90 % 10.61 C
35 17-07-2019 02:50:00 12.1 C 91 % 10.68 C
36 17-07-2019 02:55:00 12 C 90 % 10.41 C
37 17-07-2019 03:00:00 11.9 C 91 % 10.48 C
38 17-07-2019 03:05:00 11.8 C 91 % 10.38 C
39 17-07-2019 03:10:00 11.8 C 91 % 10.38 C
40 17-07-2019 03:15:00 11.7 C 91 % 10.28 C
41 17-07-2019 03:20:00 11.6 C 91 % 10.18 C
42 17-07-2019 03:25:00 11.6 C 92 % 10.35 C
43 17-07-2019 03:30:00 11.6 C 92 % 10.35 C
44 17-07-2019 03:35:00 11.6 C 92 % 10.35 C
45 17-07-2019 03:40:00 11.6 C 92 % 10.35 C
46 17-07-2019 03:45:00 11.5 C 92 % 10.25 C
47 17-07-2019 03:50:00 11.5 C 92 % 10.25 C
48 17-07-2019 03:55:00 11.5 C 92 % 10.25 C
49 17-07-2019 04:00:00 11.4 C 92 % 10.15 C
50 17-07-2019 04:05:00 11.4 C 93 % 10.31 C
Sensor: Nr:Datum:Temp:Feuchte:Taupunkt:
Aussen-T/F 51 17-07-2019 04:10:00 11.4 C 93 % 10.31 C
52 17-07-2019 04:15:00 11.3 C 93 % 10.21 C
53 17-07-2019 04:20:00 11.2 C 92 % 9.95 C
54 17-07-2019 04:25:00 11.2 C 93 % 10.11 C
55 17-07-2019 04:30:00 11.2 C 93 % 10.11 C
56 17-07-2019 04:35:00 11.2 C 93 % 10.11 C
57 17-07-2019 04:40:00 11.2 C 93 % 10.11 C
58 17-07-2019 04:45:00 11.1 C 93 % 10.01 C
59 17-07-2019 04:50:00 11.1 C 93 % 10.01 C
60 17-07-2019 04:55:00 11 C 93 % 9.91 C
61 17-07-2019 05:00:00 10.9 C 93 % 9.81 C
62 17-07-2019 05:05:00 10.9 C 93 % 9.81 C
63 17-07-2019 05:10:00 10.9 C 93 % 9.81 C
64 17-07-2019 05:15:00 10.9 C 94 % 9.97 C
65 17-07-2019 05:20:00 10.9 C 94 % 9.97 C
66 17-07-2019 05:25:00 10.9 C 94 % 9.97 C
67 17-07-2019 05:30:00 10.9 C 94 % 9.97 C
68 17-07-2019 05:35:00 10.8 C 94 % 9.87 C
69 17-07-2019 05:40:00 10.8 C 94 % 9.87 C
70 17-07-2019 05:45:00 10.7 C 94 % 9.77 C
71 17-07-2019 05:50:00 10.7 C 94 % 9.77 C
72 17-07-2019 05:55:00 10.7 C 94 % 9.77 C
73 17-07-2019 06:00:00 10.7 C 94 % 9.77 C
74 17-07-2019 06:05:00 10.7 C 94 % 9.77 C
75 17-07-2019 06:10:00 10.6 C 94 % 9.68 C
Sensor: Nr:Datum:Temp:Feuchte:Taupunkt:
Aussen-T/F 76 17-07-2019 06:15:00 10.6 C 94 % 9.68 C
77 17-07-2019 06:20:00 10.6 C 94 % 9.68 C
78 17-07-2019 06:25:00 10.7 C 94 % 9.77 C
79 17-07-2019 06:30:00 10.7 C 95 % 9.93 C
80 17-07-2019 06:35:00 10.7 C 95 % 9.93 C
81 17-07-2019 06:40:00 10.8 C 95 % 10.03 C
82 17-07-2019 06:45:00 10.9 C 95 % 10.13 C
83 17-07-2019 06:50:00 10.9 C 95 % 10.13 C
84 17-07-2019 06:55:00 11 C 95 % 10.23 C
85 17-07-2019 07:00:00 11.1 C 95 % 10.33 C
86 17-07-2019 07:05:00 11.1 C 95 % 10.33 C
87 17-07-2019 07:10:00 11.2 C 95 % 10.43 C
88 17-07-2019 07:15:00 11.2 C 95 % 10.43 C
89 17-07-2019 07:20:00 11.3 C 95 % 10.53 C
90 17-07-2019 07:25:00 11.4 C 95 % 10.63 C
91 17-07-2019 07:30:00 11.6 C 95 % 10.83 C
92 17-07-2019 07:35:00 11.7 C 95 % 10.93 C
93 17-07-2019 07:40:00 11.8 C 95 % 11.03 C
94 17-07-2019 07:45:00 11.8 C 96 % 11.18 C
95 17-07-2019 07:50:00 11.9 C 95 % 11.13 C
96 17-07-2019 07:55:00 12.1 C 95 % 11.32 C
97 17-07-2019 08:00:00 12.2 C 96 % 11.58 C
98 17-07-2019 08:05:00 12.3 C 95 % 11.52 C
99 17-07-2019 08:10:00 12.4 C 95 % 11.62 C
100 17-07-2019 08:15:00 12.6 C 95 % 11.82 C
Sensor: Nr:Datum:Temp:Feuchte:Taupunkt:
Aussen-T/F 101 17-07-2019 08:20:00 12.6 C 95 % 11.82 C
102 17-07-2019 08:25:00 12.7 C 95 % 11.92 C
103 17-07-2019 08:30:00 12.8 C 95 % 12.02 C
104 17-07-2019 08:35:00 12.9 C 94 % 11.96 C
105 17-07-2019 08:40:00 13.1 C 94 % 12.16 C
106 17-07-2019 08:45:00 13.2 C 94 % 12.26 C
107 17-07-2019 08:50:00 13.3 C 93 % 12.19 C
108 17-07-2019 08:55:00 13.4 C 93 % 12.29 C
109 17-07-2019 09:00:00 13.7 C 93 % 12.59 C
110 17-07-2019 09:05:00 13.8 C 92 % 12.52 C
111 17-07-2019 09:10:00 14.1 C 92 % 12.82 C
112 17-07-2019 09:15:00 14.3 C 90 % 12.68 C
113 17-07-2019 09:20:00 14.5 C 90 % 12.88 C
114 17-07-2019 09:25:00 14.7 C 89 % 12.91 C
115 17-07-2019 09:30:00 15 C 88 % 13.03 C
116 17-07-2019 09:35:00 15.3 C 87 % 13.15 C
117 17-07-2019 09:40:00 15.5 C 87 % 13.35 C
118 17-07-2019 09:45:00 15.7 C 86 % 13.37 C
119 17-07-2019 09:50:00 15.8 C 85 % 13.28 C
120 17-07-2019 09:55:00 15.9 C 84 % 13.2 C
121 17-07-2019 10:00:00 16.1 C 83 % 13.21 C
122 17-07-2019 10:05:00 16.3 C 82 % 13.22 C
123 17-07-2019 10:10:00 16.4 C 81 % 13.13 C
124 17-07-2019 10:15:00 16.6 C 81 % 13.33 C
125 17-07-2019 10:20:00 16.8 C 80 % 13.33 C
Sensor: Nr:Datum:Temp:Feuchte:Taupunkt:
Aussen-T/F 126 17-07-2019 10:25:00 17.2 C 77 % 13.14 C
127 17-07-2019 10:30:00 17.5 C 76 % 13.23 C
128 17-07-2019 10:35:00 17.8 C 75 % 13.31 C
129 17-07-2019 10:40:00 17.9 C 74 % 13.2 C
130 17-07-2019 10:45:00 18 C 73 % 13.09 C
131 17-07-2019 10:50:00 18.1 C 74 % 13.4 C
132 17-07-2019 10:55:00 18.1 C 73 % 13.19 C
133 17-07-2019 11:00:00 18.2 C 73 % 13.28 C
134 17-07-2019 11:05:00 18.1 C 73 % 13.19 C
135 17-07-2019 11:10:00 18.2 C 73 % 13.28 C
136 17-07-2019 11:15:00 18.3 C 72 % 13.17 C
137 17-07-2019 11:20:00 18.5 C 72 % 13.36 C
138 17-07-2019 11:25:00 18.6 C 71 % 13.24 C
139 17-07-2019 11:30:00 18.7 C 72 % 13.55 C
140 17-07-2019 11:35:00 18.7 C 71 % 13.34 C
141 17-07-2019 11:40:00 18.7 C 71 % 13.34 C
142 17-07-2019 11:45:00 18.8 C 71 % 13.43 C
143 17-07-2019 11:50:00 19 C 71 % 13.63 C
144 17-07-2019 11:55:00 19.2 C 70 % 13.6 C
145 17-07-2019 12:00:00 19.1 C 69 % 13.28 C
146 17-07-2019 12:05:00 19.1 C 70 % 13.5 C
147 17-07-2019 12:10:00 19.2 C 70 % 13.6 C
148 17-07-2019 12:15:00 19.2 C 70 % 13.6 C
149 17-07-2019 12:20:00 19.3 C 70 % 13.69 C
150 17-07-2019 12:25:00 19.3 C 70 % 13.69 C
Sensor: Nr:Datum:Temp:Feuchte:Taupunkt:
Aussen-T/F 151 17-07-2019 12:30:00 19.4 C 69 % 13.57 C
152 17-07-2019 12:35:00 19.4 C 68 % 13.34 C
153 17-07-2019 12:40:00 19.6 C 68 % 13.54 C
154 17-07-2019 12:45:00 19.6 C 67 % 13.31 C
155 17-07-2019 12:50:00 19.7 C 67 % 13.4 C
156 17-07-2019 12:55:00 19.8 C 67 % 13.5 C
157 17-07-2019 13:00:00 19.8 C 67 % 13.5 C
158 17-07-2019 13:05:00 19.8 C 66 % 13.27 C
159 17-07-2019 13:10:00 19.8 C 65 % 13.03 C
160 17-07-2019 13:15:00 20 C 65 % 13.22 C
161 17-07-2019 13:20:00 20.3 C 64 % 13.27 C
162 17-07-2019 13:25:00 20.6 C 64 % 13.55 C
163 17-07-2019 13:30:00 20.7 C 63 % 13.41 C
164 17-07-2019 13:35:00 20.9 C 61 % 13.1 C
165 17-07-2019 13:40:00 20.9 C 60 % 12.85 C
166 17-07-2019 13:45:00 20.9 C 60 % 12.85 C
167 17-07-2019 13:50:00 21.1 C 60 % 13.04 C
168 17-07-2019 13:55:00 21.2 C 60 % 13.13 C
169 17-07-2019 14:00:00 21.1 C 59 % 12.78 C
170 17-07-2019 14:05:00 21.1 C 60 % 13.04 C
171 17-07-2019 14:10:00 21.3 C 60 % 13.22 C
172 17-07-2019 14:15:00 21.5 C 57 % 12.63 C
173 17-07-2019 14:20:00 21.5 C 58 % 12.89 C
174 17-07-2019 14:25:00 21.7 C 60 % 13.6 C
175 17-07-2019 14:30:00 21.9 C 59 % 13.53 C
Sensor: Nr:Datum:Temp:Feuchte:Taupunkt:
Aussen-T/F 176 17-07-2019 14:35:00 21.9 C 60 % 13.79 C
177 17-07-2019 14:40:00 22.1 C 58 % 13.45 C
178 17-07-2019 14:45:00 22.1 C 58 % 13.45 C
179 17-07-2019 14:50:00 22 C 59 % 13.62 C
180 17-07-2019 14:55:00 22.1 C 59 % 13.72 C
181 17-07-2019 15:00:00 22.3 C 61 % 14.42 C
182 17-07-2019 15:05:00 22.3 C 58 % 13.64 C
183 17-07-2019 15:10:00 22.3 C 58 % 13.64 C
184 17-07-2019 15:15:00 22.3 C 60 % 14.16 C
185 17-07-2019 15:20:00 22.4 C 59 % 14 C
186 17-07-2019 15:25:00 22.7 C 58 % 14.01 C
187 17-07-2019 15:30:00 22.7 C 56 % 13.47 C
188 17-07-2019 15:35:00 22.8 C 58 % 14.11 C
189 17-07-2019 15:40:00 22.9 C 57 % 13.93 C
190 17-07-2019 15:45:00 23.1 C 57 % 14.12 C
191 17-07-2019 15:50:00 23.2 C 56 % 13.94 C
192 17-07-2019 15:55:00 23.3 C 58 % 14.58 C
193 17-07-2019 16:00:00 23.3 C 55 % 13.76 C
194 17-07-2019 16:05:00 23.3 C 57 % 14.31 C
195 17-07-2019 16:10:00 23.2 C 56 % 13.94 C
196 17-07-2019 16:15:00 23.1 C 56 % 13.85 C
197 17-07-2019 16:20:00 23.2 C 58 % 14.48 C
198 17-07-2019 16:25:00 23.7 C 55 % 14.13 C
199 17-07-2019 16:30:00 23.9 C 54 % 14.03 C
200 17-07-2019 16:35:00 24.1 C 54 % 14.21 C
Sensor: Nr:Datum:Temp:Feuchte:Taupunkt:
Aussen-T/F 201 17-07-2019 16:40:00 24.1 C 53 % 13.93 C
202 17-07-2019 16:45:00 24.1 C 54 % 14.21 C
203 17-07-2019 16:50:00 24.2 C 53 % 14.02 C
204 17-07-2019 16:55:00 23.9 C 54 % 14.03 C
205 17-07-2019 17:00:00 23.7 C 55 % 14.13 C
206 17-07-2019 17:05:00 24 C 54 % 14.12 C
207 17-07-2019 17:10:00 24.3 C 54 % 14.4 C
208 17-07-2019 17:15:00 24.6 C 54 % 14.68 C
209 17-07-2019 17:20:00 24.6 C 52 % 14.09 C
210 17-07-2019 17:25:00 24.7 C 53 % 14.48 C
211 17-07-2019 17:30:00 24.8 C 53 % 14.57 C
212 17-07-2019 17:35:00 24.8 C 52 % 14.28 C
213 17-07-2019 17:40:00 24.7 C 52 % 14.19 C
214 17-07-2019 17:45:00 24.9 C 53 % 14.66 C
215 17-07-2019 17:50:00 25 C 51 % 14.16 C
216 17-07-2019 17:55:00 24.8 C 53 % 14.57 C
217 17-07-2019 18:00:00 24.8 C 53 % 14.57 C
218 17-07-2019 18:05:00 24.7 C 53 % 14.48 C
219 17-07-2019 18:10:00 24.7 C 52 % 14.19 C
220 17-07-2019 18:15:00 24.6 C 53 % 14.39 C
221 17-07-2019 18:20:00 24.4 C 53 % 14.2 C
222 17-07-2019 18:25:00 24.2 C 54 % 14.31 C
223 17-07-2019 18:30:00 24.1 C 55 % 14.5 C
224 17-07-2019 18:35:00 23.9 C 55 % 14.31 C
225 17-07-2019 18:40:00 23.8 C 56 % 14.5 C
Sensor: Nr:Datum:Temp:Feuchte:Taupunkt:
Aussen-T/F 226 17-07-2019 18:45:00 23.9 C 56 % 14.59 C
227 17-07-2019 18:50:00 23.9 C 55 % 14.31 C
228 17-07-2019 18:55:00 23.9 C 55 % 14.31 C
229 17-07-2019 19:00:00 23.7 C 57 % 14.68 C
230 17-07-2019 19:05:00 23.7 C 57 % 14.68 C
231 17-07-2019 19:10:00 23.9 C 56 % 14.59 C
232 17-07-2019 19:15:00 23.7 C 57 % 14.68 C
233 17-07-2019 19:20:00 23.6 C 58 % 14.86 C
234 17-07-2019 19:25:00 23.6 C 57 % 14.59 C
235 17-07-2019 19:30:00 23.3 C 58 % 14.58 C
236 17-07-2019 19:35:00 23.1 C 59 % 14.65 C
237 17-07-2019 19:40:00 22.7 C 60 % 14.54 C
238 17-07-2019 19:45:00 22.5 C 60 % 14.35 C
239 17-07-2019 19:50:00 22.4 C 61 % 14.51 C
240 17-07-2019 19:55:00 22.3 C 62 % 14.67 C
241 17-07-2019 20:00:00 22.2 C 61 % 14.32 C
242 17-07-2019 20:05:00 22.2 C 61 % 14.32 C
243 17-07-2019 20:10:00 22.1 C 62 % 14.48 C
244 17-07-2019 20:15:00 21.9 C 63 % 14.54 C
245 17-07-2019 20:20:00 21.8 C 64 % 14.69 C
246 17-07-2019 20:25:00 21.6 C 65 % 14.74 C
247 17-07-2019 20:30:00 21.4 C 65 % 14.55 C
248 17-07-2019 20:35:00 21.3 C 65 % 14.46 C
249 17-07-2019 20:40:00 21.2 C 65 % 14.36 C
250 17-07-2019 20:45:00 21 C 66 % 14.41 C
Sensor: Nr:Datum:Temp:Feuchte:Taupunkt:
Aussen-T/F 251 17-07-2019 20:50:00 20.9 C 67 % 14.55 C
252 17-07-2019 20:55:00 20.7 C 67 % 14.36 C
253 17-07-2019 21:00:00 20.6 C 68 % 14.49 C
254 17-07-2019 21:05:00 20.4 C 68 % 14.3 C
255 17-07-2019 21:10:00 20.3 C 68 % 14.2 C
256 17-07-2019 21:15:00 20.2 C 69 % 14.33 C
257 17-07-2019 21:20:00 20.1 C 69 % 14.24 C
258 17-07-2019 21:25:00 20.1 C 70 % 14.46 C
259 17-07-2019 21:30:00 19.9 C 71 % 14.49 C
260 17-07-2019 21:35:00 19.6 C 71 % 14.2 C
261 17-07-2019 21:40:00 19.3 C 72 % 14.13 C
262 17-07-2019 21:45:00 18.9 C 73 % 13.96 C
263 17-07-2019 21:50:00 18.6 C 74 % 13.88 C
264 17-07-2019 21:55:00 18.3 C 75 % 13.79 C
265 17-07-2019 22:00:00 18 C 76 % 13.71 C
266 17-07-2019 22:05:00 17.7 C 77 % 13.62 C
267 17-07-2019 22:10:00 17.5 C 78 % 13.62 C
268 17-07-2019 22:15:00 17.3 C 79 % 13.63 C
269 17-07-2019 22:20:00 17.2 C 80 % 13.72 C
270 17-07-2019 22:25:00 17.1 C 80 % 13.62 C
271 17-07-2019 22:30:00 16.9 C 81 % 13.62 C
272 17-07-2019 22:35:00 16.8 C 81 % 13.52 C
273 17-07-2019 22:40:00 16.7 C 81 % 13.43 C
274 17-07-2019 22:45:00 16.6 C 82 % 13.52 C
275 17-07-2019 22:50:00 16.4 C 82 % 13.32 C
Sensor: Nr:Datum:Temp:Feuchte:Taupunkt:
Aussen-T/F 276 17-07-2019 22:55:00 16.4 C 83 % 13.51 C
277 17-07-2019 23:00:00 16.3 C 84 % 13.59 C
278 17-07-2019 23:05:00 16.3 C 84 % 13.59 C
279 17-07-2019 23:10:00 16.3 C 84 % 13.59 C
280 17-07-2019 23:15:00 16.2 C 84 % 13.5 C
281 17-07-2019 23:20:00 16.2 C 84 % 13.5 C
282 17-07-2019 23:25:00 16.1 C 84 % 13.4 C
283 17-07-2019 23:30:00 16 C 85 % 13.48 C
284 17-07-2019 23:35:00 15.9 C 85 % 13.38 C
285 17-07-2019 23:40:00 15.8 C 85 % 13.28 C
286 17-07-2019 23:45:00 15.8 C 85 % 13.28 C
287 17-07-2019 23:50:00 15.7 C 85 % 13.19 C
288 17-07-2019 23:55:00 15.7 C 85 % 13.19 C

Legende:
   Min
   Max


Maximal/Minimal-Werte vom 16.06.2019 - 18.07.2019

Sensor Min Max Avg
Temp
(Aussen-T/F)
8.1 °C
10-07-2019  05:50:00
37.9 °C
25-06-2019  17:45:00
19.92 °C
Feuchte
(Aussen-T/F)
19 %
06-07-2019  15:50:00
98 %
12-07-2019  07:10:00
68.56 %

Die Daten stammen von einer Davis Vantage Pro 2 Wetter-Station und werden unter Linux mit der Software wview2wettercgi und aufbereitet. Alle Angaben erfolgen ohne Gewähr für ihre Vollständigkeit oder Richtigkeit.
Kontakt: Rainer Krienke krienke@uni-koblenz.de . Meine Webseiten an der Uni Koblenz oder privat.
Version: $Revision: 0.78 $